Time;durP1;ratioP1;P1;durP2;ratioP2;P2;SDS_P1;SDS_P2;PMS_P1;PMS_P2;Temp;Humidity;BMP_temperature;BMP_pressure;BME280_temperature;BME280_humidity;BME280_pressure;Samples;Min_cycle;Max_cycle;Signal;HPM_P1;HPM_P2
2022/04/06 00:00:44;;;;;;;;;1.00;0.00;;;;;12.42;100.00;100703.38;6334489;22;45401;-94
2022/04/06 00:03:10;;;;;;;;;2.00;2.00;;;;;12.43;100.00;100712.19;6336211;22;45362;-94
2022/04/06 00:05:35;;;;;;;;;1.00;0.67;;;;;12.43;100.00;100713.09;6307964;22;47736;-95
2022/04/06 00:08:01;;;;;;;;;2.00;0.67;;;;;12.38;100.00;100702.38;6307560;22;45490;-94
2022/04/06 00:10:28;;;;;;;;;2.00;2.00;;;;;12.43;100.00;100697.28;6333544;22;45275;-92
2022/04/06 00:12:54;;;;;;;;;2.00;1.00;;;;;12.42;100.00;100702.50;6307960;22;45391;-94
2022/04/06 00:15:20;;;;;;;;;2.00;2.00;;;;;12.27;100.00;100682.66;6334968;22;45434;-94
2022/04/06 00:17:46;;;;;;;;;2.33;0.67;;;;;12.40;100.00;100707.69;6332070;22;45356;-94
2022/04/06 00:20:12;;;;;;;;;1.67;1.67;;;;;12.28;100.00;100687.09;6334902;22;45287;-93
2022/04/06 00:22:37;;;;;;;;;2.67;0.00;;;;;12.23;100.00;100680.75;6308134;22;45758;-96
2022/04/06 00:25:03;;;;;;;;;1.33;1.33;;;;;12.23;100.00;100693.91;6334738;22;47989;-92
2022/04/06 00:27:28;;;;;;;;;2.00;0.67;;;;;12.28;100.00;100692.34;6333481;22;45359;-94
2022/04/06 00:29:53;;;;;;;;;3.00;1.00;;;;;12.22;100.00;100693.00;6334795;22;45311;-93
2022/04/06 00:32:20;;;;;;;;;1.00;0.67;;;;;12.18;100.00;100680.59;6334674;22;45509;-95
2022/04/06 00:37:29;;;;;;;;;0.00;0.00;;;;;12.03;100.00;100670.34;6337745;22;45223;-94
2022/04/06 00:39:55;;;;;;;;;3.00;1.00;;;;;11.96;100.00;100670.09;6310696;22;45258;-92
2022/04/06 00:42:20;;;;;;;;;0.00;0.00;;;;;11.97;100.00;100676.25;6325445;22;45284;-93
2022/04/06 00:44:46;;;;;;;;;1.00;0.00;;;;;11.92;100.00;100669.94;6347742;22;47526;-92
2022/04/06 00:47:11;;;;;;;;;2.00;0.00;;;;;11.83;100.00;100666.09;6327578;22;45261;-94
2022/04/06 00:49:36;;;;;;;;;2.67;1.00;;;;;11.78;100.00;100670.28;6353215;22;44699;-91
2022/04/06 00:52:05;;;;;;;;;1.00;1.00;;;;;11.77;100.00;100667.59;6334187;22;45428;-92
2022/04/06 00:54:31;;;;;;;;;0.00;0.00;;;;;11.64;100.00;100655.72;6334682;22;47468;-93
2022/04/06 00:56:57;;;;;;;;;0.00;0.00;;;;;11.56;100.00;100650.13;6327811;22;45391;-94
2022/04/06 00:59:26;;;;;;;;;0.67;0.00;;;;;11.53;100.00;100650.91;6333802;22;45341;-93
2022/04/06 01:01:52;;;;;;;;;1.00;1.00;;;;;11.47;100.00;100643.69;6334290;22;45335;-92
2022/04/06 01:04:18;;;;;;;;;1.00;1.00;;;;;11.43;100.00;100633.88;6360355;22;47075;-93
2022/04/06 01:06:44;;;;;;;;;1.33;1.00;;;;;11.48;100.00;100641.94;6335275;22;45337;-92
2022/04/06 01:09:10;;;;;;;;;0.00;0.00;;;;;11.42;100.00;100631.19;6361208;22;45362;-93
2022/04/06 01:11:36;;;;;;;;;3.33;1.67;;;;;11.35;100.00;100627.41;6335230;22;45461;-93
2022/04/06 01:14:02;;;;;;;;;2.00;1.00;;;;;11.33;100.00;100634.34;6334752;22;45485;-93
2022/04/06 01:16:28;;;;;;;;;1.33;1.00;;;;;11.28;100.00;100621.03;6360216;22;45690;-93
2022/04/06 01:18:53;;;;;;;;;1.67;1.00;;;;;11.27;100.00;100630.63;6333646;22;45719;-93
2022/04/06 01:21:20;;;;;;;;;1.67;1.00;;;;;11.23;100.00;100623.47;6335342;22;45289;-93
2022/04/06 01:23:45;;;;;;;;;1.00;1.00;;;;;11.09;100.00;100607.13;6359838;22;47365;-92
2022/04/06 01:26:12;;;;;;;;;0.33;0.33;;;;;11.16;100.00;100616.16;6359537;22;45312;-93
2022/04/06 01:28:38;;;;;;;;;1.00;1.00;;;;;11.11;100.00;100609.81;6335975;22;45568;-93
2022/04/06 01:31:04;;;;;;;;;1.33;1.00;;;;;11.06;100.00;100607.91;6340693;22;45527;-91
2022/04/06 01:33:31;;;;;;;;;2.00;0.00;;;;;11.03;100.00;100613.03;6340910;22;45518;-92
2022/04/06 01:35:58;;;;;;;;;2.00;1.00;;;;;10.89;100.00;100591.47;6340486;22;45304;-92
2022/04/06 01:38:24;;;;;;;;;2.00;1.00;;;;;10.96;100.00;100618.88;6334247;22;45254;-94
2022/04/06 01:40:49;;;;;;;;;3.00;1.33;;;;;10.92;100.00;100615.22;6332161;22;45661;-93
2022/04/06 01:43:15;;;;;;;;;2.00;1.00;;;;;10.84;100.00;100607.03;6333177;22;47282;-93
2022/04/06 01:45:40;;;;;;;;;2.33;1.00;;;;;10.77;100.00;100596.19;6360098;22;45377;-93
2022/04/06 01:48:06;;;;;;;;;0.00;0.00;;;;;10.72;100.00;100588.13;6335926;22;45124;-92
2022/04/06 01:53:15;;;;;;;;;2.33;1.00;;;;;10.66;100.00;100582.63;6335251;22;45373;-93
2022/04/06 01:55:41;;;;;;;;;0.00;0.00;;;;;10.68;100.00;100588.81;6332249;22;45490;-94
2022/04/06 01:58:07;;;;;;;;;2.00;1.00;;;;;10.69;100.00;100588.00;6333774;22;45371;-91
2022/04/06 02:00:33;;;;;;;;;1.00;0.00;;;;;10.61;100.00;100582.44;6333515;22;45229;-92
2022/04/06 02:03:00;;;;;;;;;1.00;1.00;;;;;10.58;100.00;100584.91;6335403;22;45444;-92
2022/04/06 02:05:25;;;;;;;;;0.00;0.00;;;;;10.57;100.00;100580.47;6360250;22;45375;-94
2022/04/06 02:07:51;;;;;;;;;0.00;0.00;;;;;10.57;100.00;100584.00;6333863;22;45436;-94
2022/04/06 02:10:18;;;;;;;;;0.33;0.33;;;;;10.53;100.00;100584.72;6333093;22;45713;-92
2022/04/06 02:12:44;;;;;;;;;0.00;0.00;;;;;10.50;100.00;100580.19;6332836;22;48215;-93
2022/04/06 02:15:12;;;;;;;;;1.33;1.33;;;;;10.48;100.00;100580.97;6333318;22;45562;-94
2022/04/06 02:17:38;;;;;;;;;2.00;2.00;;;;;10.47;100.00;100584.41;6361148;22;45364;-93
2022/04/06 02:20:04;;;;;;;;;0.00;0.00;;;;;10.47;100.00;100573.91;6333237;22;45596;-92
2022/04/06 02:22:30;;;;;;;;;0.00;0.00;;;;;10.49;100.00;100565.28;6332259;22;47713;-91
2022/04/06 02:24:55;;;;;;;;;1.33;1.33;;;;;10.57;100.00;100564.72;6359431;22;45423;-92
2022/04/06 02:27:21;;;;;;;;;0.00;0.00;;;;;10.63;100.00;100554.50;6333742;22;45456;-93
2022/04/06 02:29:47;;;;;;;;;0.00;0.00;;;;;10.61;100.00;100543.97;6333224;22;45329;-94
2022/04/06 02:32:12;;;;;;;;;1.00;1.00;;;;;10.66;100.00;100544.13;6334170;22;47089;-93
2022/04/06 02:34:39;;;;;;;;;1.00;1.00;;;;;10.76;100.00;100555.00;6359745;22;45389;-93
2022/04/06 02:37:05;;;;;;;;;0.00;0.00;;;;;10.80;100.00;100556.91;6333364;22;45295;-93
2022/04/06 02:39:30;;;;;;;;;1.00;0.00;;;;;10.78;100.00;100546.38;6359718;22;45513;-93
2022/04/06 02:41:56;;;;;;;;;2.00;0.33;;;;;10.78;100.00;100546.38;6333037;22;47869;-92
2022/04/06 02:44:21;;;;;;;;;0.00;0.00;;;;;10.83;100.00;100543.94;6335380;22;45227;-93
2022/04/06 02:46:48;;;;;;;;;0.33;0.33;;;;;10.81;100.00;100536.00;6333092;22;45360;-93
2022/04/06 02:49:14;;;;;;;;;1.00;1.00;;;;;10.82;100.00;100537.78;6335248;22;45516;-93
2022/04/06 02:51:40;;;;;;;;;0.00;0.00;;;;;10.93;100.00;100546.09;6332970;22;47119;-92
2022/04/06 02:54:06;;;;;;;;;0.00;0.00;;;;;10.93;100.00;100546.09;6333213;22;45412;-94
2022/04/06 02:56:32;;;;;;;;;0.00;0.00;;;;;10.86;100.00;100535.28;6333005;22;45487;-92
2022/04/06 02:58:57;;;;;;;;;1.67;0.67;;;;;10.89;100.00;100540.66;6335495;22;45393;-93
2022/04/06 03:01:23;;;;;;;;;1.00;0.00;;;;;10.87;100.00;100530.09;6359924;22;47073;-92
2022/04/06 03:03:48;;;;;;;;;0.00;0.00;;;;;10.91;100.00;100537.25;6359914;22;45532;-92
2022/04/06 03:06:14;;;;;;;;;0.00;0.00;;;;;10.87;100.00;100521.34;6360787;22;45265;-93
2022/04/06 03:08:40;;;;;;;;;0.33;0.33;;;;;11.02;100.00;100547.31;6333337;22;45415;-92
2022/04/06 03:11:05;;;;;;;;;2.00;0.00;;;;;10.93;100.00;100532.97;6359350;22;47012;-93
2022/04/06 03:13:31;;;;;;;;;0.67;0.00;;;;;10.99;100.00;100523.53;6331986;22;45345;-92
2022/04/06 03:15:57;;;;;;;;;2.00;0.00;;;;;10.93;100.00;100519.84;6333627;22;45251;-93
2022/04/06 03:18:22;;;;;;;;;0.00;0.00;;;;;10.94;100.00;100518.13;6359789;22;45629;-92
2022/04/06 03:20:48;;;;;;;;;0.00;0.00;;;;;10.93;100.00;100505.81;6332362;22;47948;-93
2022/04/06 03:23:15;;;;;;;;;2.00;0.33;;;;;11.00;100.00;100514.84;6332756;22;45352;-92
2022/04/06 03:25:41;;;;;;;;;0.00;0.00;;;;;10.91;100.00;100497.88;6341167;22;45351;-92
2022/04/06 03:28:06;;;;;;;;;1.00;1.00;;;;;11.00;100.00;100509.59;6333359;22;45412;-93
2022/04/06 03:30:32;;;;;;;;;1.00;1.00;;;;;10.98;100.00;100506.00;6333799;22;47145;-93
2022/04/06 03:32:57;;;;;;;;;0.00;0.00;;;;;10.95;100.00;100496.28;6334291;22;45400;-92
2022/04/06 03:35:22;;;;;;;;;0.67;0.67;;;;;10.99;100.00;100507.78;6332719;22;45304;-92
2022/04/06 03:37:49;;;;;;;;;1.00;1.00;;;;;10.92;100.00;100483.94;6332806;22;45317;-93
2022/04/06 03:40:15;;;;;;;;;0.00;0.00;;;;;10.95;100.00;100486.66;6332432;22;47223;-93
2022/04/06 03:42:40;;;;;;;;;0.00;0.00;;;;;11.03;100.00;100501.84;6332848;22;45198;-93
2022/04/06 03:45:06;;;;;;;;;1.00;0.00;;;;;10.88;100.00;100476.75;6333460;22;45338;-94
2022/04/06 03:47:33;;;;;;;;;0.00;0.00;;;;;10.98;100.00;100490.25;6335475;22;45340;-92
2022/04/06 03:50:00;;;;;;;;;0.00;0.00;;;;;10.91;100.00;100481.22;6333378;22;46955;-94
2022/04/06 03:52:26;;;;;;;;;3.00;0.00;;;;;10.91;100.00;100486.47;6334485;22;45387;-93
2022/04/06 03:54:53;;;;;;;;;0.00;0.00;;;;;10.95;100.00;100494.53;6334485;22;45374;-94
2022/04/06 03:57:19;;;;;;;;;0.00;0.00;;;;;10.93;100.00;100484.78;6334397;22;45292;-93
2022/04/06 03:59:44;;;;;;;;;2.67;1.00;;;;;10.99;100.00;100498.19;6334393;22;47341;-92
2022/04/06 04:02:09;;;;;;;;;0.00;0.00;;;;;10.94;100.00;100489.22;6338657;22;45260;-93
2022/04/06 04:04:35;;;;;;;;;0.00;0.00;;;;;10.89;100.00;100480.25;6335404;22;45372;-94
2022/04/06 04:07:01;;;;;;;;;2.00;0.00;;;;;10.91;100.00;100483.84;6333912;22;45628;-93
2022/04/06 04:09:28;;;;;;;;;1.00;0.00;;;;;10.91;100.00;100475.97;6334143;22;47173;-93
2022/04/06 04:11:56;;;;;;;;;0.00;0.00;;;;;10.97;100.00;100489.34;6333250;22;45907;-93
2022/04/06 04:14:22;;;;;;;;;0.00;0.00;;;;;11.01;100.00;100490.34;6335513;22;45384;-92
2022/04/06 04:16:47;;;;;;;;;0.00;0.00;;;;;10.98;100.00;100483.25;6360886;22;45414;-93
2022/04/06 04:19:13;;;;;;;;;0.00;0.00;;;;;10.94;100.00;100474.38;6333622;22;48100;-93
2022/04/06 04:21:38;;;;;;;;;0.67;0.00;;;;;10.94;100.00;100476.09;6337091;22;45382;-94
2022/04/06 04:24:08;;;;;;;;;2.00;0.00;;;;;10.99;100.00;100478.91;6341086;22;45344;-93
2022/04/06 04:26:34;;;;;;;;;1.00;0.00;;;;;10.94;100.00;100473.47;6354817;22;45545;-93
2022/04/06 04:29:00;;;;;;;;;0.00;0.00;;;;;10.91;100.00;100479.50;6357206;22;46517;-93
2022/04/06 04:31:26;;;;;;;;;0.00;0.00;;;;;10.97;100.00;100478.84;6384332;22;45421;-95
2022/04/06 04:33:51;;;;;;;;;0.00;0.00;;;;;10.95;100.00;100477.91;6374151;22;45017;-92
2022/04/06 04:36:17;;;;;;;;;0.00;0.00;;;;;11.00;100.00;100472.81;6334925;22;45594;-93
2022/04/06 04:38:43;;;;;;;;;0.00;0.00;;;;;11.00;100.00;100473.72;6333750;22;48035;-93
2022/04/06 04:41:08;;;;;;;;;0.00;0.00;;;;;10.90;100.00;100448.81;6332854;22;45645;-93
2022/04/06 04:43:35;;;;;;;;;1.00;0.00;;;;;10.99;100.00;100466.66;6360186;22;45273;-93
2022/04/06 04:46:01;;;;;;;;;0.00;0.00;;;;;11.00;100.00;100463.22;6334615;22;45459;-94
2022/04/06 04:48:27;;;;;;;;;0.00;0.00;;;;;11.00;100.00;100459.69;6334560;22;47217;-94
2022/04/06 04:50:52;;;;;;;;;0.00;0.00;;;;;11.03;100.00;100447.56;6361713;22;45331;-93
2022/04/06 04:53:19;;;;;;;;;0.00;0.00;;;;;11.09;100.00;100446.91;6342223;22;45096;-94
2022/04/06 04:55:44;;;;;;;;;0.00;0.00;;;;;11.11;100.00;100447.84;6344584;22;45354;-94
2022/04/06 04:58:10;;;;;;;;;1.33;0.67;;;;;11.15;100.00;100435.75;6335525;22;48016;-93
2022/04/06 05:00:35;;;;;;;;;1.00;1.00;;;;;11.11;100.00;100429.47;6360759;22;45363;-94
2022/04/06 05:03:02;;;;;;;;;1.00;1.00;;;;;11.07;100.00;100430.19;6334333;22;45452;-93
2022/04/06 05:05:28;;;;;;;;;0.00;0.00;;;;;11.08;100.00;100431.09;6359702;22;45572;-93
2022/04/06 05:07:53;;;;;;;;;0.00;0.00;;;;;11.23;100.00;100464.94;6332975;22;47951;-93
2022/04/06 05:10:19;;;;;;;;;1.00;0.00;;;;;11.15;100.00;100438.38;6359980;22;45206;-93
2022/04/06 05:12:45;;;;;;;;;2.00;0.00;;;;;11.15;100.00;100447.16;6332972;22;45226;-93
2022/04/06 05:15:12;;;;;;;;;0.00;0.00;;;;;11.23;100.00;100446.53;6333008;22;45435;-92
2022/04/06 05:17:38;;;;;;;;;0.33;0.33;;;;;11.20;100.00;100446.41;6332406;22;46083;-94
2022/04/06 05:20:06;;;;;;;;;0.67;0.67;;;;;11.28;100.00;100452.88;6333714;22;45788;-92
2022/04/06 05:22:31;;;;;;;;;0.00;0.00;;;;;11.23;100.00;100438.66;6335652;22;45407;-91
2022/04/06 05:24:56;;;;;;;;;3.00;1.33;;;;;11.31;100.00;100449.47;6336286;22;45399;-92
2022/04/06 05:27:22;;;;;;;;;0.00;0.00;;;;;11.27;100.00;100448.44;6333116;22;47094;-93
2022/04/06 05:29:47;;;;;;;;;0.00;0.00;;;;;11.24;100.00;100443.06;6359705;22;45411;-93
2022/04/06 05:32:14;;;;;;;;;0.67;0.67;;;;;11.34;100.00;100462.72;6336351;22;45332;-92
2022/04/06 05:34:39;;;;;;;;;2.00;0.00;;;;;11.30;100.00;100445.94;6334653;22;45575;-93
2022/04/06 05:37:05;;;;;;;;;1.33;0.33;;;;;11.32;100.00;100448.59;6359045;22;47011;-94
2022/04/06 05:39:30;;;;;;;;;1.00;1.00;;;;;11.34;100.00;100449.59;6362232;22;45463;-93
2022/04/06 05:41:55;;;;;;;;;1.00;1.00;;;;;11.31;100.00;100445.09;6335250;22;45494;-93
2022/04/06 05:44:21;;;;;;;;;0.00;0.00;;;;;11.35;100.00;100453.97;6335888;22;45657;-93
2022/04/06 05:46:46;;;;;;;;;1.00;0.00;;;;;11.34;100.00;100455.72;6335569;22;47981;-94
2022/04/06 05:49:12;;;;;;;;;0.00;0.00;;;;;11.30;100.00;100440.69;6336175;22;46011;-94
2022/04/06 05:51:37;;;;;;;;;0.00;0.00;;;;;11.32;100.00;100443.34;6362056;22;45472;-94
2022/04/06 05:54:03;;;;;;;;;1.00;1.00;;;;;11.29;100.00;100438.88;6336101;22;45328;-93
2022/04/06 05:56:30;;;;;;;;;1.00;0.00;;;;;11.33;100.00;100442.53;6335854;22;47344;-94
2022/04/06 05:58:55;;;;;;;;;2.00;1.33;;;;;11.35;100.00;100449.63;6337308;22;45374;-93
2022/04/06 06:01:21;;;;;;;;;3.00;0.33;;;;;11.31;100.00;100444.19;6334638;22;45427;-92
2022/04/06 06:03:47;;;;;;;;;1.00;0.67;;;;;11.27;100.00;100451.06;6334622;22;45437;-93
2022/04/06 06:06:12;;;;;;;;;0.67;0.67;;;;;11.25;100.00;100444.84;6333985;22;48082;-91
2022/04/06 06:08:38;;;;;;;;;2.00;2.00;;;;;11.28;100.00;100444.97;6336098;22;45376;-93
2022/04/06 06:11:04;;;;;;;;;1.00;1.00;;;;;11.30;100.00;100443.31;6333979;22;45249;-94
2022/04/06 06:13:32;;;;;;;;;2.00;1.00;;;;;11.34;100.00;100441.69;6332156;22;45421;-93
2022/04/06 06:15:58;;;;;;;;;1.33;1.33;;;;;11.24;100.00;100422.94;6335343;22;47121;-93
2022/04/06 06:18:25;;;;;;;;;2.00;1.00;;;;;11.36;100.00;100443.53;6339850;22;45341;-93
2022/04/06 06:20:50;;;;;;;;;1.00;1.00;;;;;11.33;100.00;100426.75;6362281;22;45344;-92
2022/04/06 06:23:16;;;;;;;;;1.33;1.33;;;;;11.41;100.00;100433.19;6360653;22;45441;-93
2022/04/06 06:25:41;;;;;;;;;3.33;1.00;;;;;11.33;100.00;100417.16;6332917;22;47175;-86
2022/04/06 06:28:07;;;;;;;;;2.33;1.00;;;;;11.48;100.00;100436.94;6334025;22;45368;-87
2022/04/06 06:30:33;;;;;;;;;1.00;1.00;;;;;11.45;100.00;100429.84;6334705;22;45389;-86
2022/04/06 06:32:58;;;;;;;;;1.00;1.00;;;;;11.53;100.00;100435.38;6344206;22;45235;-87
2022/04/06 06:35:24;;;;;;;;;1.00;1.00;;;;;11.55;100.00;100433.69;6332637;22;45414;-87
2022/04/06 06:37:52;;;;;;;;;2.00;2.00;;;;;11.62;100.00;100435.69;6336164;22;45276;-89
2022/04/06 06:40:19;;;;;;;;;2.00;2.00;;;;;11.66;100.00;100435.81;6332878;22;45290;-87
2022/04/06 06:42:44;;;;;;;;;3.00;1.00;;;;;11.68;100.00;100426.22;6334160;22;45332;-86
2022/04/06 06:45:11;;;;;;;;;4.00;1.67;;;;;11.77;100.00;100433.56;6333029;22;45439;-86
2022/04/06 06:47:36;;;;;;;;;2.67;2.00;;;;;11.81;100.00;100435.44;6335213;22;45284;-86
2022/04/06 06:50:03;;;;;;;;;1.67;1.00;;;;;11.90;100.00;100438.44;6333929;22;45372;-87
2022/04/06 06:52:29;;;;;;;;;2.00;1.00;;;;;11.90;100.00;100433.16;6327110;22;45485;-87
2022/04/06 06:54:54;;;;;;;;;1.00;1.00;;;;;11.96;100.00;100429.84;6331905;22;46310;-86
2022/04/06 06:57:19;;;;;;;;;2.00;2.00;;;;;12.02;100.00;100432.69;6332724;22;45241;-87
2022/04/06 06:59:45;;;;;;;;;4.00;1.00;;;;;12.08;100.00;100442.53;6303855;22;45235;-87
2022/04/06 07:02:10;;;;;;;;;0.33;0.33;;;;;12.15;100.00;100441.03;6303599;22;45576;-87
2022/04/06 07:04:37;;;;;;;;;0.33;0.33;;;;;12.22;100.00;100437.75;6326733;22;47522;-88
2022/04/06 07:07:02;;;;;;;;;1.00;1.00;;;;;12.32;100.00;100444.22;6329433;22;45339;-87
2022/04/06 07:09:28;;;;;;;;;1.00;1.00;;;;;12.37;100.00;100434.75;6331971;22;45324;-85
2022/04/06 07:11:55;;;;;;;;;1.00;1.00;;;;;12.44;100.00;100441.13;6330597;22;45337;-85
2022/04/06 07:14:20;;;;;;;;;3.00;1.67;;;;;12.52;100.00;100436.97;6330831;22;46773;-87
2022/04/06 07:16:46;;;;;;;;;2.00;1.00;;;;;12.52;100.00;100434.34;6302249;22;45323;-85
2022/04/06 07:19:11;;;;;;;;;1.00;1.00;;;;;12.56;100.00;100431.81;6333755;22;45529;-85
2022/04/06 07:21:36;;;;;;;;;0.33;0.00;;;;;12.62;100.00;100439.91;6332023;22;45340;-85
2022/04/06 07:24:03;;;;;;;;;1.00;1.00;;;;;12.65;100.00;100434.75;6333357;22;46220;-84
2022/04/06 07:26:29;;;;;;;;;2.00;0.00;;;;;12.72;100.00;100449.00;6332534;22;45589;-86
2022/04/06 07:28:54;;;;;;;;;1.67;0.33;;;;;12.70;100.00;100433.16;6332866;22;45427;-86
2022/04/06 07:31:19;;;;;;;;;4.67;1.00;;;;;12.78;100.00;100430.75;6304298;22;45522;-86
2022/04/06 07:33:45;;;;;;;;;0.00;0.00;;;;;12.83;100.00;100436.19;6329984;22;47143;-87
2022/04/06 07:36:10;;;;;;;;;3.00;2.00;;;;;12.91;100.00;100441.69;6330378;22;45578;-88
2022/04/06 07:38:35;;;;;;;;;3.33;1.67;;;;;12.94;100.00;100441.75;6333947;22;45265;-86
2022/04/06 07:41:01;;;;;;;;;2.00;1.33;;;;;12.98;100.00;100426.94;6333652;22;45313;-87
2022/04/06 07:43:27;;;;;;;;;1.00;1.00;;;;;13.04;100.00;100442.97;6337614;22;45451;-84
2022/04/06 07:45:53;;;;;;;;;0.67;0.67;;;;;13.10;100.00;100434.31;6334259;22;45654;-90
2022/04/06 07:48:19;;;;;;;;;1.00;1.00;;;;;13.15;100.00;100425.72;6328438;22;45410;-90
2022/04/06 07:50:45;;;;;;;;;1.00;1.00;;;;;13.23;100.00;100439.13;6334678;22;45460;-87
2022/04/06 07:53:11;;;;;;;;;1.00;1.00;;;;;13.28;100.00;100426.97;6306806;22;47059;-86
2022/04/06 07:55:37;;;;;;;;;1.00;1.00;;;;;13.40;100.00;100442.22;6334310;22;45252;-86
2022/04/06 07:58:02;;;;;;;;;1.00;1.00;;;;;13.41;100.00;100433.50;6332770;22;45510;-86
2022/04/06 08:00:33;;;;;;;;;1.33;0.00;;;;;13.48;100.00;100420.47;6331414;22;45549;-87
2022/04/06 08:02:59;;;;;;;;;1.00;1.00;;;;;13.61;100.00;100427.91;6304869;22;46473;-86
2022/04/06 08:05:24;;;;;;;;;2.67;2.00;;;;;13.63;100.00;100420.91;6308504;22;45268;-87
2022/04/06 08:07:52;;;;;;;;;1.67;1.00;;;;;13.69;100.00;100424.59;6343354;22;45344;-88
2022/04/06 08:10:17;;;;;;;;;1.00;0.00;;;;;13.71;100.00;100415.00;6346898;22;45378;-88
2022/04/06 08:12:44;;;;;;;;;1.00;1.00;;;;;13.83;100.00;100422.34;6328778;22;46059;-87
2022/04/06 08:15:10;;;;;;;;;1.00;1.00;;;;;13.91;100.00;100422.53;6340552;22;45347;-87
2022/04/06 08:17:38;;;;;;;;;0.00;0.00;;;;;13.92;100.00;100412.00;6332657;22;45347;-87
2022/04/06 08:20:05;;;;;;;;;1.00;1.00;;;;;14.00;100.00;100420.13;6336567;22;45721;-86
2022/04/06 08:22:31;;;;;;;;;0.33;0.33;;;;;14.01;100.00;100413.09;6304472;22;45830;-86
2022/04/06 08:24:57;;;;;;;;;1.00;1.00;;;;;14.05;100.00;100421.13;6330128;22;45358;-87
2022/04/06 08:27:22;;;;;;;;;0.00;0.00;;;;;14.05;100.00;100415.88;6330715;22;45392;-86
2022/04/06 08:29:47;;;;;;;;;2.33;2.00;;;;;14.09;100.00;100414.22;6332785;22;45346;-86
2022/04/06 08:32:14;;;;;;;;;0.67;0.67;;;;;14.11;100.00;100422.16;6304016;22;47177;-86
2022/04/06 08:34:39;;;;;;;;;0.00;0.00;;;;;14.16;100.00;100418.78;6302409;22;46030;-86
2022/04/06 08:37:05;;;;;;;;;1.00;0.67;;;;;14.23;100.00;100416.28;6303295;22;45443;-86
2022/04/06 08:39:30;;;;;;;;;0.33;0.33;;;;;14.25;100.00;100406.69;6332062;22;45367;-86
2022/04/06 08:41:55;;;;;;;;;1.33;1.33;;;;;14.30;100.00;100413.81;6331740;22;62629;-86
2022/04/06 08:44:21;;;;;;;;;2.33;1.00;;;;;14.35;100.00;100407.78;6332105;22;45343;-86
2022/04/06 08:46:50;;;;;;;;;2.00;0.00;;;;;14.39;100.00;100415.81;6332122;22;45340;-86
2022/04/06 08:49:16;;;;;;;;;1.00;1.00;;;;;14.37;100.00;100414.00;6332277;22;45430;-86
2022/04/06 08:51:45;;;;;;;;;0.67;0.67;;;;;14.44;100.00;100421.19;6332093;22;46224;-87
2022/04/06 08:54:10;;;;;;;;;1.00;1.00;;;;;14.49;100.00;100418.66;6329382;22;45343;-86
2022/04/06 08:56:37;;;;;;;;;1.00;1.00;;;;;14.52;100.00;100419.66;6329759;22;45372;-87
2022/04/06 08:59:03;;;;;;;;;0.33;0.33;;;;;14.53;100.00;100407.34;6330592;22;45365;-87
2022/04/06 09:01:33;;;;;;;;;2.00;0.00;;;;;14.59;100.00;100409.22;6330445;22;45627;-86
2022/04/06 09:04:00;;;;;;;;;2.67;1.33;;;;;14.64;100.00;100411.09;6302522;22;45648;-87
2022/04/06 09:06:29;;;;;;;;;1.33;1.00;;;;;14.71;100.00;100414.81;6327419;22;45359;-87
2022/04/06 09:08:54;;;;;;;;;0.00;0.00;;;;;14.79;100.00;100414.94;6330325;22;45560;-86
2022/04/06 09:11:20;;;;;;;;;0.67;0.67;;;;;14.87;100.00;100416.94;6327278;22;45871;-87
2022/04/06 09:13:53;;;;;;;;;1.33;1.33;;;;;14.91;100.00;100414.38;6328840;22;45336;-87
2022/04/06 09:16:18;;;;;;;;;2.67;1.00;;;;;14.99;100.00;100413.66;6328462;22;45310;-87
2022/04/06 09:18:46;;;;;;;;;3.00;0.67;;;;;15.07;100.00;100404.16;6301885;22;45582;-90
2022/04/06 09:21:18;;;;;;;;;1.00;1.00;;;;;15.16;100.00;100404.31;6305239;22;47346;-85
2022/04/06 09:23:48;;;;;;;;;0.00;0.00;;;;;15.24;100.00;100408.88;6333055;22;44770;-86
2022/04/06 09:26:16;;;;;;;;;2.00;1.00;;;;;15.34;100.00;100417.88;6331332;22;45278;-86
2022/04/06 09:28:45;;;;;;;;;4.00;1.00;;;;;15.34;100.00;100410.84;6327862;22;45380;-86
2022/04/06 09:31:14;;;;;;;;;1.00;1.00;;;;;15.34;100.00;100417.88;6330254;22;45638;-86
2022/04/06 09:33:41;;;;;;;;;1.67;1.33;;;;;15.27;100.00;100407.19;6301152;22;45662;-86
2022/04/06 09:36:20;;;;;;;;;0.67;0.67;;;;;15.33;100.00;100422.31;6329240;22;45425;-87
2022/04/06 09:38:50;;;;;;;;;1.00;0.00;;;;;15.37;100.00;100423.25;6330130;22;45320;-87
2022/04/06 09:41:18;;;;;;;;;0.67;0.00;;;;;15.35;100.00;100414.41;6330317;22;45291;-87
2022/04/06 09:43:45;;;;;;;;;2.00;2.00;;;;;15.41;100.00;100422.47;6300741;22;45342;-87
2022/04/06 09:49:12;;;;;;;;;1.67;1.00;;;;;15.49;100.00;100418.19;6329954;22;45332;-86
2022/04/06 09:51:39;;;;;;;;;1.67;1.67;;;;;15.53;100.00;100421.81;6294783;22;46385;-86
2022/04/06 09:54:06;;;;;;;;;0.00;0.00;;;;;15.58;100.00;100425.44;6329953;22;45438;-86
2022/04/06 09:56:33;;;;;;;;;1.33;1.00;;;;;15.60;100.00;100410.47;6271782;22;1330210;-86
2022/04/06 09:58:59;;;;;;;;;1.33;1.33;;;;;15.59;100.00;100424.56;6332314;22;45446;-85
2022/04/06 10:01:32;;;;;;;;;0.00;0.00;;;;;15.55;100.00;100421.81;6331994;22;46424;-84
2022/04/06 10:04:02;;;;;;;;;2.00;0.00;;;;;15.51;100.00;100429.69;6332902;22;45490;-85
2022/04/06 10:06:31;;;;;;;;;1.00;1.00;;;;;15.48;100.00;100418.19;6330128;22;45601;-85
2022/04/06 10:08:56;;;;;;;;;1.00;1.00;;;;;15.49;100.00;100414.66;6331566;22;45339;-85
2022/04/06 10:11:22;;;;;;;;;0.33;0.00;;;;;15.51;100.00;100419.09;6331839;22;45853;-87
2022/04/06 10:13:49;;;;;;;;;0.67;0.67;;;;;15.54;100.00;100410.34;6336228;22;45446;-88
2022/04/06 10:16:17;;;;;;;;;1.00;1.00;;;;;15.53;100.00;100419.16;6337606;22;45248;-87
2022/04/06 10:18:44;;;;;;;;;0.67;0.67;;;;;15.50;100.00;100405.88;6305068;22;45328;-88
2022/04/06 10:21:22;;;;;;;;;2.00;0.67;;;;;15.49;100.00;100397.03;6332076;22;46089;-87
2022/04/06 10:24:20;;;;;;;;;0.00;0.00;;;;;15.52;100.00;100405.03;6330772;22;45298;-86
2022/04/06 10:27:05;;;;;;;;;1.00;0.67;;;;;15.60;100.00;100397.25;6307678;22;45401;-86
2022/04/06 10:29:30;;;;;;;;;3.00;1.00;;;;;15.68;100.00;100399.16;6302667;22;45574;-84
2022/04/06 10:31:55;;;;;;;;;2.67;1.00;;;;;15.70;100.00;100400.06;6331706;22;46294;-84
2022/04/06 10:34:32;;;;;;;;;1.00;1.00;;;;;15.70;100.00;100397.41;6331621;22;45313;-85
2022/04/06 10:37:05;;;;;;;;;1.00;1.00;;;;;15.61;100.00;100383.19;6330893;22;45643;-87
2022/04/06 10:39:31;;;;;;;;;2.67;2.33;;;;;15.60;100.00;100385.78;6330801;22;45525;-87
2022/04/06 10:42:14;;;;;;;;;1.00;1.00;;;;;15.62;100.00;100382.28;6331096;22;45369;-87
2022/04/06 10:44:41;;;;;;;;;2.00;2.00;;;;;15.52;100.00;100373.28;6329951;22;45494;-87
2022/04/06 10:47:08;;;;;;;;;2.67;2.00;;;;;15.47;100.00;100367.03;6331991;22;45714;-88
2022/04/06 10:49:34;;;;;;;;;2.33;2.33;;;;;15.38;100.00;100362.47;6330922;22;45257;-87
2022/04/06 10:52:24;;;;;;;;;0.33;0.33;;;;;15.32;100.00;100357.06;6326198;22;45747;-85
2022/04/06 10:54:51;;;;;;;;;2.33;2.00;;;;;15.24;100.00;100367.47;6331642;22;45358;-84
2022/04/06 10:57:17;;;;;;;;;1.00;1.00;;;;;15.15;100.00;100346.16;6331776;22;45419;-87
2022/04/06 10:59:42;;;;;;;;;2.33;2.33;;;;;15.14;100.00;100347.00;6330710;22;45337;-87
2022/04/06 11:02:25;;;;;;;;;1.00;1.00;;;;;15.23;100.00;100339.25;6331663;22;45461;-87
2022/04/06 11:04:52;;;;;;;;;5.00;3.33;;;;;15.39;100.00;100329.84;6333151;22;44724;-86
2022/04/06 11:10:29;;;;;;;;;1.00;1.00;;;;;15.85;100.00;100331.53;6333512;22;45227;-86
2022/04/06 11:13:06;;;;;;;;;3.00;3.00;;;;;16.18;100.00;100325.91;6327782;22;46938;-86
2022/04/06 11:15:37;;;;;;;;;3.00;2.00;;;;;16.31;100.00;100324.34;6304518;22;45309;-86
2022/04/06 11:18:04;;;;;;;;;6.00;3.00;;;;;16.26;100.00;100316.31;6333427;22;45311;-87
2022/04/06 11:20:31;;;;;;;;;2.67;2.67;;;;;16.27;100.00;100315.44;6329903;22;45447;-88
2022/04/06 11:22:58;;;;;;;;;4.00;4.00;;;;;16.29;100.00;100320.75;6332223;22;45422;-86
2022/04/06 11:25:31;;;;;;;;;2.67;2.67;;;;;16.38;100.00;100307.66;6308071;22;45813;-86